Terminal Aerodrome Forecast
Issued by NWS Denver/Boulder, CO

Home | Current Version | Previous Version | Text Only | Print | Product List | Glossary On
Versions: 1 2 3 4 5 6 7 8 9 10 11 12 13 14 15 16 17 18 19 20 21 22 23 24 25 26 27 28 29 30 31 32 33 34 35 36 37 38 39 40 41 42 43 44 45 46 47 48 49 50
000
FTUS45 KBOU 290211 AAA
TAFDEN
TAF AMD
KDEN 290211Z 2902/3006 11012KT P6SM SCT100 BKN140
     FM290700 VRB06KT P6SM FEW100 SCT140
     FM291400 30008KT P6SM FEW140
     FM292000 03012KT P6SM SCT090 BKN140 PROB30 2922/3002 VRB20G30KT
      -TSRA SCT090CB
     FM300200 09011KT P6SM BKN090=

USA.gov is the U.S. government's official web portal to all federal, state and local government web resources and services.